Weather at Holler Heliport

Public forecast

Using degrees Fahrenheit for public forecast. Weather courtesy of forecast.io.

Closest aviation weather report (METAR) to Holler Heliport

Closest report is Randolph Air Force Base, 17.6 nm (32.6 km) SSE. Retrieved 2021/09/27 20:56 UTC (9 minutes ago):

KRND 272056Z AUTO 16007KT 10SM FEW060 FEW190 31/17 A2992 RMK AO2 SLP124 T03110166 57025

Closest aviation forecast (TAF) to Holler Heliport

Closest forecast is Randolph Air Force Base, 17.6 nm (32.6 km) SSE. Retrieved 2021/09/27 16:42 UTC (4 hours ago):

TAF KRND 271639Z 2716/2822 VRB05KT 9999 BKN018 BKN120 BKN250 QNH3002INS BECMG 2716/2717 15009KT 9999 SCT020 SCT120 BKN250 QNH2992INS BECMG 2809/2810 18006KT 9000 BR BKN010 QNH2990INS BECMG 2814/2815 17009KT 9999 NSW SCT025 SCT050 BKN140 QNH2993INS TX32/2721Z TN21/2812Z LAST NO AMDS AFT 2800 NEXT 2810